sensor_id;sensor_type;location;lat;lon;timestamp;pressure;altitude;pressure_sealevel;temperature;humidity
18765;BME280;9511;54.242;12.448;2023-02-12T04:05:26;103299.59;;;4.77;100.00
18765;BME280;9511;54.242;12.448;2023-02-12T04:07:55;103301.03;;;4.74;100.00
18765;BME280;9511;54.242;12.448;2023-02-12T04:10:30;103299.47;;;4.76;100.00
18765;BME280;9511;54.242;12.448;2023-02-12T04:13:08;103305.09;;;4.80;100.00
18765;BME280;9511;54.242;12.448;2023-02-12T04:15:45;103306.03;;;4.81;100.00
18765;BME280;9511;54.242;12.448;2023-02-12T04:18:19;103306.31;;;4.84;100.00
18765;BME280;9511;54.242;12.448;2023-02-12T04:20:58;103307.09;;;4.83;100.00
18765;BME280;9511;54.242;12.448;2023-02-12T04:23:41;103310.75;;;4.85;100.00
18765;BME280;9511;54.242;12.448;2023-02-12T04:26:18;103312.88;;;4.89;100.00
18765;BME280;9511;54.242;12.448;2023-02-12T04:28:55;103314.06;;;4.93;100.00
18765;BME280;9511;54.242;12.448;2023-02-12T04:31:32;103313.81;;;4.90;100.00
18765;BME280;9511;54.242;12.448;2023-02-12T04:34:09;103314.72;;;4.90;100.00
18765;BME280;9511;54.242;12.448;2023-02-12T04:36:44;103320.63;;;4.98;100.00
18765;BME280;9511;54.242;12.448;2023-02-12T04:39:16;103317.63;;;4.93;100.00
18765;BME280;9511;54.242;12.448;2023-02-12T04:41:46;103316.44;;;4.90;100.00
18765;BME280;9511;54.242;12.448;2023-02-12T04:44:18;103319.97;;;4.90;100.00
18765;BME280;9511;54.242;12.448;2023-02-12T04:46:47;103319.97;;;4.90;100.00
18765;BME280;9511;54.242;12.448;2023-02-12T04:49:16;103330.16;;;4.87;100.00
18765;BME280;9511;54.242;12.448;2023-02-12T04:51:45;103345.16;;;4.88;100.00
18765;BME280;9511;54.242;12.448;2023-02-12T04:54:13;103340.66;;;4.87;100.00
18765;BME280;9511;54.242;12.448;2023-02-12T04:56:41;103342.72;;;4.81;100.00
18765;BME280;9511;54.242;12.448;2023-02-12T04:59:09;103345.88;;;4.77;100.00
18765;BME280;9511;54.242;12.448;2023-02-12T05:01:37;103339.56;;;4.75;100.00
18765;BME280;9511;54.242;12.448;2023-02-12T05:04:06;103337.09;;;4.76;100.00
18765;BME280;9511;54.242;12.448;2023-02-12T05:06:34;103338.66;;;4.74;100.00
18765;BME280;9511;54.242;12.448;2023-02-12T05:09:04;103338.81;;;4.76;100.00
18765;BME280;9511;54.242;12.448;2023-02-12T05:11:31;103341.69;;;4.79;100.00
18765;BME280;9511;54.242;12.448;2023-02-12T05:13:58;103343.75;;;4.73;100.00
18765;BME280;9511;54.242;12.448;2023-02-12T05:16:26;103344.56;;;4.72;100.00
18765;BME280;9511;54.242;12.448;2023-02-12T05:18:53;103342.84;;;4.72;100.00
18765;BME280;9511;54.242;12.448;2023-02-12T05:21:20;103342.84;;;4.72;100.00
18765;BME280;9511;54.242;12.448;2023-02-12T05:23:48;103340.84;;;4.70;100.00
18765;BME280;9511;54.242;12.448;2023-02-12T05:26:18;103334.69;;;4.69;100.00
18765;BME280;9511;54.242;12.448;2023-02-12T05:28:46;103344.69;;;4.73;100.00
18765;BME280;9511;54.242;12.448;2023-02-12T05:31:15;103336.94;;;4.75;100.00
18765;BME280;9511;54.242;12.448;2023-02-12T05:33:44;103340.34;;;4.74;100.00
18765;BME280;9511;54.242;12.448;2023-02-12T05:36:13;103335.91;;;4.73;100.00
18765;BME280;9511;54.242;12.448;2023-02-12T05:38:41;103341.44;;;4.76;100.00
18765;BME280;9511;54.242;12.448;2023-02-12T05:41:10;103342.19;;;4.75;100.00
18765;BME280;9511;54.242;12.448;2023-02-12T05:43:39;103341.69;;;4.79;100.00
18765;BME280;9511;54.242;12.448;2023-02-12T05:46:07;103339.97;;;4.79;100.00
18765;BME280;9511;54.242;12.448;2023-02-12T05:48:35;103347.22;;;4.82;100.00
18765;BME280;9511;54.242;12.448;2023-02-12T05:51:06;103351.69;;;4.83;100.00
18765;BME280;9511;54.242;12.448;2023-02-12T05:53:34;103357.06;;;4.85;100.00
18765;BME280;9511;54.242;12.448;2023-02-12T05:56:10;103356.13;;;4.84;100.00
18765;BME280;9511;54.242;12.448;2023-02-12T05:58:40;103355.34;;;4.85;100.00
18765;BME280;9511;54.242;12.448;2023-02-12T06:01:10;103360.09;;;4.89;100.00
18765;BME280;9511;54.242;12.448;2023-02-12T06:03:37;103357.06;;;4.85;100.00
18765;BME280;9511;54.242;12.448;2023-02-12T06:06:05;103361.63;;;4.87;100.00
18765;BME280;9511;54.242;12.448;2023-02-12T06:08:32;103362.72;;;4.89;100.00
18765;BME280;9511;54.242;12.448;2023-02-12T06:11:01;103354.06;;;4.90;100.00
18765;BME280;9511;54.242;12.448;2023-02-12T06:13:29;103355.81;;;5.10;100.00
18765;BME280;9511;54.242;12.448;2023-02-12T06:15:58;103367.00;;;5.18;100.00
18765;BME280;9511;54.242;12.448;2023-02-12T06:18:26;103357.56;;;5.20;100.00
18765;BME280;9511;54.242;12.448;2023-02-12T06:20:54;103368.88;;;5.29;100.00
18765;BME280;9511;54.242;12.448;2023-02-12T06:23:23;103371.22;;;5.26;100.00
18765;BME280;9511;54.242;12.448;2023-02-12T06:25:56;103368.88;;;5.29;100.00
18765;BME280;9511;54.242;12.448;2023-02-12T06:28:23;103372.56;;;5.31;100.00
18765;BME280;9511;54.242;12.448;2023-02-12T06:30:50;103377.28;;;5.35;100.00
18765;BME280;9511;54.242;12.448;2023-02-12T06:33:19;103376.75;;;5.29;100.00
18765;BME280;9511;54.242;12.448;2023-02-12T06:35:46;103374.94;;;5.28;100.00
18765;BME280;9511;54.242;12.448;2023-02-12T06:38:14;103370.97;;;5.33;100.00
18765;BME280;9511;54.242;12.448;2023-02-12T06:40:41;103379.75;;;5.23;100.00
18765;BME280;9511;54.242;12.448;2023-02-12T06:43:08;103376.72;;;5.19;100.00
18765;BME280;9511;54.242;12.448;2023-02-12T06:45:36;103372.38;;;5.19;100.00
18765;BME280;9511;54.242;12.448;2023-02-12T06:48:04;103375.69;;;5.17;100.00
18765;BME280;9511;54.242;12.448;2023-02-12T06:50:32;103371.47;;;5.19;100.00
18765;BME280;9511;54.242;12.448;2023-02-12T06:53:00;103384.09;;;5.23;100.00
18765;BME280;9511;54.242;12.448;2023-02-12T06:55:27;103379.88;;;5.25;100.00
18765;BME280;9511;54.242;12.448;2023-02-12T06:57:54;103375.69;;;5.27;100.00
18765;BME280;9511;54.242;12.448;2023-02-12T07:00:22;103377.94;;;5.22;100.00
18765;BME280;9511;54.242;12.448;2023-02-12T07:02:53;103387.50;;;5.22;100.00
18765;BME280;9511;54.242;12.448;2023-02-12T07:05:21;103394.06;;;5.27;100.00
18765;BME280;9511;54.242;12.448;2023-02-12T07:07:50;103387.38;;;5.30;100.00
18765;BME280;9511;54.242;12.448;2023-02-12T07:10:18;103394.22;;;5.28;100.00
18765;BME280;9511;54.242;12.448;2023-02-12T07:12:45;103395.38;;;5.32;100.00
18765;BME280;9511;54.242;12.448;2023-02-12T07:15:13;103390.66;;;5.38;100.00
18765;BME280;9511;54.242;12.448;2023-02-12T07:17:41;103394.09;;;5.37;100.00
18765;BME280;9511;54.242;12.448;2023-02-12T07:20:09;103386.59;;;5.31;100.00
18765;BME280;9511;54.242;12.448;2023-02-12T07:22:37;103400.25;;;5.38;100.00
18765;BME280;9511;54.242;12.448;2023-02-12T07:25:06;103404.59;;;5.37;100.00
18765;BME280;9511;54.242;12.448;2023-02-12T07:27:35;103399.88;;;5.43;100.00
18765;BME280;9511;54.242;12.448;2023-02-12T07:30:03;103401.59;;;5.43;100.00
18765;BME280;9511;54.242;12.448;2023-02-12T07:32:31;103404.22;;;5.43;100.00
18765;BME280;9511;54.242;12.448;2023-02-12T07:34:59;103398.56;;;5.48;100.00
18765;BME280;9511;54.242;12.448;2023-02-12T07:37:27;103409.88;;;5.47;100.00
18765;BME280;9511;54.242;12.448;2023-02-12T07:39:54;103415.91;;;5.46;100.00
18765;BME280;9511;54.242;12.448;2023-02-12T07:42:23;103416.53;;;5.44;100.00
18765;BME280;9511;54.242;12.448;2023-02-12T07:44:50;103415.91;;;5.46;100.00
18765;BME280;9511;54.242;12.448;2023-02-12T07:47:17;103415.50;;;5.42;100.00
18765;BME280;9511;54.242;12.448;2023-02-12T07:49:45;103427.69;;;5.41;100.00
18765;BME280;9511;54.242;12.448;2023-02-12T07:52:12;103426.13;;;5.43;100.00
18765;BME280;9511;54.242;12.448;2023-02-12T07:54:39;103427.69;;;5.41;100.00
18765;BME280;9511;54.242;12.448;2023-02-12T07:57:06;103434.53;;;5.39;100.00
18765;BME280;9511;54.242;12.448;2023-02-12T07:59:35;103430.03;;;5.38;100.00
18765;BME280;9511;54.242;12.448;2023-02-12T08:02:03;103439.91;;;5.41;100.00
18765;BME280;9511;54.242;12.448;2023-02-12T08:04:30;103443.97;;;5.37;100.00
18765;BME280;9511;54.242;12.448;2023-02-12T08:06:57;103447.50;;;5.38;100.00
18765;BME280;9511;54.242;12.448;2023-02-12T08:09:26;103443.03;;;5.37;100.00
18765;BME280;9511;54.242;12.448;2023-02-12T08:11:55;103448.66;;;5.31;100.00
18765;BME280;9511;54.242;12.448;2023-02-12T08:14:25;103444.44;;;5.33;100.00
18765;BME280;9511;54.242;12.448;2023-02-12T08:16:54;103447.25;;;5.35;100.00
18765;BME280;9511;54.242;12.448;2023-02-12T08:19:21;103455.50;;;5.29;100.00
18765;BME280;9511;54.242;12.448;2023-02-12T08:21:57;103444.19;;;5.30;100.00
18765;BME280;9511;54.242;12.448;2023-02-12T08:24:25;103446.03;;;5.31;100.00
18765;BME280;9511;54.242;12.448;2023-02-12T08:26:53;103446.31;;;5.34;100.00
18765;BME280;9511;54.242;12.448;2023-02-12T08:29:22;103450.66;;;5.33;100.00
18765;BME280;9511;54.242;12.448;2023-02-12T08:31:55;103454.31;;;5.36;100.00
18765;BME280;9511;54.242;12.448;2023-02-12T08:34:24;103456.66;;;5.32;100.00
18765;BME280;9511;54.242;12.448;2023-02-12T08:36:53;103459.94;;;5.30;100.00
18765;BME280;9511;54.242;12.448;2023-02-12T08:39:21;103467.03;;;5.31;100.00
18765;BME280;9511;54.242;12.448;2023-02-12T08:41:49;103464.69;;;5.34;100.00
18765;BME280;9511;54.242;12.448;2023-02-12T08:44:17;103468.63;;;5.29;100.00
18765;BME280;9511;54.242;12.448;2023-02-12T08:46:46;103467.94;;;5.31;100.00
18765;BME280;9511;54.242;12.448;2023-02-12T08:49:17;103473.06;;;5.30;100.00
18765;BME280;9511;54.242;12.448;2023-02-12T08:51:46;103482.88;;;5.22;100.00
18765;BME280;9511;54.242;12.448;2023-02-12T08:54:15;103483.81;;;5.23;100.00
18765;BME280;9511;54.242;12.448;2023-02-12T08:56:43;103478.25;;;5.20;100.00
18765;BME280;9511;54.242;12.448;2023-02-12T08:59:12;103479.47;;;5.23;100.00
18765;BME280;9511;54.242;12.448;2023-02-12T09:01:40;103477.41;;;5.29;100.00
18765;BME280;9511;54.242;12.448;2023-02-12T09:04:11;103484.97;;;5.26;100.00
18765;BME280;9511;54.242;12.448;2023-02-12T09:06:41;103488.16;;;5.32;100.00
18765;BME280;9511;54.242;12.448;2023-02-12T09:09:08;103486.75;;;5.36;100.00
18765;BME280;9511;54.242;12.448;2023-02-12T09:11:36;103486.50;;;5.43;100.00
18765;BME280;9511;54.242;12.448;2023-02-12T09:14:05;103484.41;;;5.49;100.00
18765;BME280;9511;54.242;12.448;2023-02-12T09:16:34;103482.50;;;5.57;100.00
18765;BME280;9511;54.242;12.448;2023-02-12T09:19:02;103483.13;;;5.54;100.00
18765;BME280;9511;54.242;12.448;2023-02-12T09:21:30;103494.16;;;5.60;100.00
18765;BME280;9511;54.242;12.448;2023-02-12T09:23:59;103488.00;;;5.60;100.00
18765;BME280;9511;54.242;12.448;2023-02-12T09:26:27;103488.84;;;5.69;100.00
18765;BME280;9511;54.242;12.448;2023-02-12T09:28:54;103485.56;;;5.82;100.00
18765;BME280;9511;54.242;12.448;2023-02-12T09:31:24;103490.03;;;5.83;100.00
18765;BME280;9511;54.242;12.448;2023-02-12T09:33:53;103497.19;;;5.94;100.00
18765;BME280;9511;54.242;12.448;2023-02-12T09:36:21;103498.13;;;6.05;100.00
18765;BME280;9511;54.242;12.448;2023-02-12T09:38:48;103488.03;;;6.09;100.00
18765;BME280;9511;54.242;12.448;2023-02-12T09:41:45;103490.91;;;6.02;100.00
18765;BME280;9511;54.242;12.448;2023-02-12T09:44:20;103498.94;;;6.04;100.00
18765;BME280;9511;54.242;12.448;2023-02-12T09:46:51;103490.38;;;6.06;100.00
18765;BME280;9511;54.242;12.448;2023-02-12T09:49:31;103496.41;;;6.05;100.00
18765;BME280;9511;54.242;12.448;2023-02-12T09:52:04;103490.53;;;6.08;100.00
18765;BME280;9511;54.242;12.448;2023-02-12T09:54:36;103494.31;;;6.11;100.00
18765;BME280;9511;54.242;12.448;2023-02-12T09:57:14;103497.47;;;6.07;100.00
18765;BME280;9511;54.242;12.448;2023-02-12T09:59:45;103485.53;;;6.11;100.00
18765;BME280;9511;54.242;12.448;2023-02-12T10:02:16;103486.19;;;6.19;100.00
18765;BME280;9511;54.242;12.448;2023-02-12T10:04:45;103494.06;;;6.19;100.00
18765;BME280;9511;54.242;12.448;2023-02-12T10:07:18;103496.97;;;6.22;100.00
18765;BME280;9511;54.242;12.448;2023-02-12T10:10:17;103491.84;;;6.23;100.00
18765;BME280;9511;54.242;12.448;2023-02-12T10:12:50;103484.63;;;6.31;100.00
18765;BME280;9511;54.242;12.448;2023-02-12T10:15:31;103482.38;;;6.35;100.00
18765;BME280;9511;54.242;12.448;2023-02-12T10:18:10;103490.53;;;6.28;100.00
18765;BME280;9511;54.242;12.448;2023-02-12T10:20:53;103484.88;;;6.34;100.00
18765;BME280;9511;54.242;12.448;2023-02-12T10:23:36;103487.00;;;6.38;100.00
18765;BME280;9511;54.242;12.448;2023-02-12T10:26:12;103490.38;;;6.47;100.00
18765;BME280;9511;54.242;12.448;2023-02-12T10:28:43;103481.69;;;6.58;100.00
18765;BME280;9511;54.242;12.448;2023-02-12T10:31:15;103480.25;;;6.52;100.00
18765;BME280;9511;54.242;12.448;2023-02-12T10:33:47;103484.22;;;6.47;100.00
18765;BME280;9511;54.242;12.448;2023-02-12T10:36:22;103478.84;;;6.45;100.00
18765;BME280;9511;54.242;12.448;2023-02-12T10:38:57;103480.13;;;6.40;100.00
18765;BME280;9511;54.242;12.448;2023-02-12T10:41:29;103476.59;;;6.39;100.00
18765;BME280;9511;54.242;12.448;2023-02-12T10:43:58;103477.00;;;6.44;100.00
18765;BME280;9511;54.242;12.448;2023-02-12T10:46:28;103479.34;;;6.51;100.00
18765;BME280;9511;54.242;12.448;2023-02-12T10:48:57;103494.47;;;6.44;100.00
18765;BME280;9511;54.242;12.448;2023-02-12T10:51:37;103478.31;;;6.49;100.00
18765;BME280;9511;54.242;12.448;2023-02-12T10:54:32;103489.34;;;6.45;100.00
18765;BME280;9511;54.242;12.448;2023-02-12T10:57:07;103490.53;;;6.49;100.00
18765;BME280;9511;54.242;12.448;2023-02-12T10:59:37;103488.28;;;6.53;100.00
18765;BME280;9511;54.242;12.448;2023-02-12T11:02:26;103491.59;;;6.51;100.00
18765;BME280;9511;54.242;12.448;2023-02-12T11:04:54;103491.47;;;6.49;100.00
18765;BME280;9511;54.242;12.448;2023-02-12T11:07:23;103489.06;;;6.42;100.00
18765;BME280;9511;54.242;12.448;2023-02-12T11:09:53;103483.56;;;6.39;100.00
18765;BME280;9511;54.242;12.448;2023-02-12T11:12:32;103484.63;;;6.31;100.00
18765;BME280;9511;54.242;12.448;2023-02-12T11:15:06;103480.13;;;6.40;100.00
18765;BME280;9511;54.242;12.448;2023-02-12T11:17:39;103483.56;;;6.49;100.00
18765;BME280;9511;54.242;12.448;2023-02-12T11:20:23;103481.75;;;6.48;100.00
18765;BME280;9511;54.242;12.448;2023-02-12T11:22:53;103486.97;;;6.58;100.00
18765;BME280;9511;54.242;12.448;2023-02-12T11:25:23;103481.06;;;6.61;100.00
18765;BME280;9511;54.242;12.448;2023-02-12T11:28:04;103480.38;;;6.63;100.00
18765;BME280;9511;54.242;12.448;2023-02-12T11:30:33;103489.06;;;6.73;100.00
18765;BME280;9511;54.242;12.448;2023-02-12T11:33:16;103477.72;;;6.84;100.00
18765;BME280;9511;54.242;12.448;2023-02-12T11:35:52;103483.50;;;6.90;100.00
18765;BME280;9511;54.242;12.448;2023-02-12T11:38:23;103471.91;;;6.88;100.00
18765;BME280;9511;54.242;12.448;2023-02-12T11:40:55;103464.03;;;6.88;100.00
18765;BME280;9511;54.242;12.448;2023-02-12T11:43:23;103469.03;;;6.95;100.00
18765;BME280;9511;54.242;12.448;2023-02-12T11:45:53;103458.72;;;6.98;100.00
18765;BME280;9511;54.242;12.448;2023-02-12T11:48:25;103471.19;;;7.11;100.00
18765;BME280;9511;54.242;12.448;2023-02-12T11:50:55;103471.59;;;7.05;100.00
18765;BME280;9511;54.242;12.448;2023-02-12T11:53:26;103473.69;;;7.09;100.00
18765;BME280;9511;54.242;12.448;2023-02-12T11:55:57;103461.59;;;7.11;100.00
18765;BME280;9511;54.242;12.448;2023-02-12T11:58:27;103470.28;;;7.10;100.00
18765;BME280;9511;54.242;12.448;2023-02-12T12:01:04;103475.28;;;7.17;100.00
18765;BME280;9511;54.242;12.448;2023-02-12T12:03:37;103463.69;;;7.15;100.00
18765;BME280;9511;54.242;12.448;2023-02-12T12:06:13;103476.31;;;7.19;100.00
18765;BME280;9511;54.242;12.448;2023-02-12T12:08:46;103474.72;;;7.22;100.00
18765;BME280;9511;54.242;12.448;2023-02-12T12:11:18;103470.28;;;7.10;100.00
18765;BME280;9511;54.242;12.448;2023-02-12T12:13:51;103467.63;;;7.21;100.00
18765;BME280;9511;54.242;12.448;2023-02-12T12:16:26;103462.19;;;7.29;100.00
18765;BME280;9511;54.242;12.448;2023-02-12T12:19:17;103466.88;;;7.33;100.00
18765;BME280;9511;54.242;12.448;2023-02-12T12:22:07;103458.75;;;7.30;100.00
18765;BME280;9511;54.242;12.448;2023-02-12T12:24:41;103460.47;;;7.30;100.00
18765;BME280;9511;54.242;12.448;2023-02-12T12:27:15;103465.47;;;7.27;100.00
18765;BME280;9511;54.242;12.448;2023-02-12T12:30:17;103459.91;;;7.34;100.00
18765;BME280;9511;54.242;12.448;2023-02-12T12:32:49;103461.09;;;7.37;100.00
18765;BME280;9511;54.242;12.448;2023-02-12T12:35:25;103472.31;;;7.35;100.00
18765;BME280;9511;54.242;12.448;2023-02-12T12:38:00;103463.59;;;7.36;100.00
18765;BME280;9511;54.242;12.448;2023-02-12T12:40:44;103459.50;;;7.39;100.00
18765;BME280;9511;54.242;12.448;2023-02-12T12:43:20;103466.78;;;7.32;100.00
18765;BME280;9511;54.242;12.448;2023-02-12T12:48:56;103466.34;;;7.37;100.00
18765;BME280;9511;54.242;12.448;2023-02-12T12:51:42;103455.22;;;7.30;100.00
18765;BME280;9511;54.242;12.448;2023-02-12T12:54:25;103458.22;;;7.34;100.00
18765;BME280;9511;54.242;12.448;2023-02-12T12:57:03;103466.34;;;7.37;100.00
18765;BME280;9511;54.242;12.448;2023-02-12T12:59:52;103450.44;;;7.36;100.00
18765;BME280;9511;54.242;12.448;2023-02-12T13:05:50;103442.78;;;7.39;100.00
18765;BME280;9511;54.242;12.448;2023-02-12T13:08:32;103446.69;;;7.44;100.00
18765;BME280;9511;54.242;12.448;2023-02-12T13:11:10;103442.13;;;7.41;100.00
18765;BME280;9511;54.242;12.448;2023-02-12T13:13:45;103441.91;;;7.50;100.00
18765;BME280;9511;54.242;12.448;2023-02-12T13:16:18;103444.94;;;7.55;100.00
18765;BME280;9511;54.242;12.448;2023-02-12T13:18:55;103437.41;;;7.59;100.00
18765;BME280;9511;54.242;12.448;2023-02-12T13:21:36;103437.28;;;7.58;100.00
18765;BME280;9511;54.242;12.448;2023-02-12T13:24:17;103435.56;;;7.58;100.00
18765;BME280;9511;54.242;12.448;2023-02-12T13:26:51;103435.56;;;7.58;100.00
18765;BME280;9511;54.242;12.448;2023-02-12T13:29:23;103443.66;;;7.50;100.00
18765;BME280;9511;54.242;12.448;2023-02-12T13:31:55;103435.31;;;7.55;100.00
18765;BME280;9511;54.242;12.448;2023-02-12T13:34:26;103436.50;;;7.59;100.00
18765;BME280;9511;54.242;12.448;2023-02-12T13:36:59;103433.97;;;7.60;100.00
18765;BME280;9511;54.242;12.448;2023-02-12T13:39:30;103435.31;;;7.55;100.00
18765;BME280;9511;54.242;12.448;2023-02-12T13:42:10;103433.09;;;7.50;100.00
18765;BME280;9511;54.242;12.448;2023-02-12T13:44:49;103428.97;;;7.63;100.00
18765;BME280;9511;54.242;12.448;2023-02-12T13:47:33;103429.19;;;7.66;100.00
18765;BME280;9511;54.242;12.448;2023-02-12T13:50:16;103431.34;;;7.60;100.00
18765;BME280;9511;54.242;12.448;2023-02-12T13:52:56;103424.25;;;7.59;100.00
18765;BME280;9511;54.242;12.448;2023-02-12T13:55:28;103427.34;;;7.65;100.00
18765;BME280;9511;54.242;12.448;2023-02-12T14:01:04;103410.25;;;7.82;100.00
18765;BME280;9511;54.242;12.448;2023-02-12T14:03:33;103414.81;;;7.85;100.00
18765;BME280;9511;54.242;12.448;2023-02-12T14:06:13;103409.13;;;7.90;100.00
18765;BME280;9511;54.242;12.448;2023-02-12T14:08:46;103408.09;;;7.88;100.00
18765;BME280;9511;54.242;12.448;2023-02-12T14:11:15;103410.72;;;7.88;99.98
18765;BME280;9511;54.242;12.448;2023-02-12T14:13:49;103420.34;;;7.88;100.00
18765;BME280;9511;54.242;12.448;2023-02-12T14:16:38;103406.16;;;7.86;100.00
18765;BME280;9511;54.242;12.448;2023-02-12T14:19:53;103417.34;;;7.83;100.00
18765;BME280;9511;54.242;12.448;2023-02-12T14:25:41;103409.25;;;7.92;100.00
18765;BME280;9511;54.242;12.448;2023-02-12T14:28:19;103411.75;;;7.90;100.00
18765;BME280;9511;54.242;12.448;2023-02-12T14:31:20;103418.59;;;7.77;100.00
18765;BME280;9511;54.242;12.448;2023-02-12T14:33:50;103418.97;;;7.81;100.00
18765;BME280;9511;54.242;12.448;2023-02-12T14:36:35;103414.59;;;7.82;100.00
18765;BME280;9511;54.242;12.448;2023-02-12T14:39:26;103416.19;;;7.80;100.00
18765;BME280;9511;54.242;12.448;2023-02-12T14:45:02;103420.38;;;7.66;100.00
18765;BME280;9511;54.242;12.448;2023-02-12T14:50:36;103427.00;;;7.61;100.00
18765;BME280;9511;54.242;12.448;2023-02-12T14:53:26;103428.69;;;7.60;100.00
18765;BME280;9511;54.242;12.448;2023-02-12T14:55:56;103436.50;;;7.59;100.00
18765;BME280;9511;54.242;12.448;2023-02-12T14:58:26;103432.13;;;7.59;100.00
18765;BME280;9511;54.242;12.448;2023-02-12T15:00:57;103434.28;;;7.53;100.00
18765;BME280;9511;54.242;12.448;2023-02-12T15:03:31;103441.69;;;7.47;100.00
18765;BME280;9511;54.242;12.448;2023-02-12T15:06:06;103438.41;;;7.39;100.00
18765;BME280;9511;54.242;12.448;2023-02-12T15:08:43;103431.53;;;7.30;100.00
18765;BME280;9511;54.242;12.448;2023-02-12T15:11:19;103438.13;;;7.25;100.00
18765;BME280;9511;54.242;12.448;2023-02-12T15:13:53;103444.19;;;7.24;100.00
18765;BME280;9511;54.242;12.448;2023-02-12T15:16:28;103441.56;;;7.24;100.00
18765;BME280;9511;54.242;12.448;2023-02-12T15:19:03;103442.88;;;7.18;100.00
18765;BME280;9511;54.242;12.448;2023-02-12T15:21:33;103447.34;;;7.19;100.00
18765;BME280;9511;54.242;12.448;2023-02-12T15:43:16;103455.53;;;7.12;100.00
18765;BME280;9511;54.242;12.448;2023-02-12T15:45:49;103445.81;;;7.11;100.00
18765;BME280;9511;54.242;12.448;2023-02-12T15:48:18;103450.81;;;7.08;100.00
18765;BME280;9511;54.242;12.448;2023-02-12T15:50:49;103449.63;;;7.05;100.00
18765;BME280;9511;54.242;12.448;2023-02-12T15:53:18;103444.38;;;7.05;100.00
18765;BME280;9511;54.242;12.448;2023-02-12T15:55:47;103447.78;;;7.04;100.00
18765;BME280;9511;54.242;12.448;2023-02-12T15:58:22;103451.34;;;7.04;100.00
18765;BME280;9511;54.242;12.448;2023-02-12T16:00:51;103445.97;;;7.03;100.00
18765;BME280;9511;54.242;12.448;2023-02-12T16:03:21;103438.97;;;7.03;100.00
18765;BME280;9511;54.242;12.448;2023-02-12T16:05:50;103442.94;;;6.98;100.00
18765;BME280;9511;54.242;12.448;2023-02-12T16:08:20;103446.38;;;6.97;100.00
18765;BME280;9511;54.242;12.448;2023-02-12T16:10:52;103456.41;;;6.91;100.00
18765;BME280;9511;54.242;12.448;2023-02-12T16:13:27;103457.31;;;6.91;100.00
18765;BME280;9511;54.242;12.448;2023-02-12T16:16:07;103462.34;;;6.88;100.00
18765;BME280;9511;54.242;12.448;2023-02-12T16:18:41;103455.38;;;6.89;100.00
18765;BME280;9511;54.242;12.448;2023-02-12T16:21:11;103454.28;;;6.87;100.00
18765;BME280;9511;54.242;12.448;2023-02-12T16:23:41;103465.72;;;6.87;100.00
18765;BME280;9511;54.242;12.448;2023-02-12T16:26:15;103468.25;;;6.86;100.00
18765;BME280;9511;54.242;12.448;2023-02-12T16:28:47;103476.94;;;6.85;100.00
18765;BME280;9511;54.242;12.448;2023-02-12T16:31:16;103471.91;;;6.88;100.00
18765;BME280;9511;54.242;12.448;2023-02-12T16:33:46;103481.28;;;6.84;100.00
18765;BME280;9511;54.242;12.448;2023-02-12T16:36:26;103473.38;;;6.84;100.00
18765;BME280;9511;54.242;12.448;2023-02-12T16:38:56;103465.50;;;6.84;100.00
18765;BME280;9511;54.242;12.448;2023-02-12T16:41:25;103466.94;;;6.81;100.00
18765;BME280;9511;54.242;12.448;2023-02-12T16:44:25;103477.06;;;6.76;100.00
18765;BME280;9511;54.242;12.448;2023-02-12T16:46:56;103479.84;;;6.78;100.00
18765;BME280;9511;54.242;12.448;2023-02-12T16:49:25;103475.00;;;6.72;100.00
18765;BME280;9511;54.242;12.448;2023-02-12T16:51:54;103478.53;;;6.73;100.00
18765;BME280;9511;54.242;12.448;2023-02-12T16:54:41;103480.91;;;6.70;100.00
18765;BME280;9511;54.242;12.448;2023-02-12T16:57:10;103472.88;;;6.68;100.00
18765;BME280;9511;54.242;12.448;2023-02-12T16:59:37;103471.56;;;6.73;100.00
18765;BME280;9511;54.242;12.448;2023-02-12T17:02:10;103462.63;;;6.71;100.00
18765;BME280;9511;54.242;12.448;2023-02-12T17:04:38;103475.00;;;6.72;100.00
18765;BME280;9511;54.242;12.448;2023-02-12T17:07:15;103472.47;;;6.74;100.00
18765;BME280;9511;54.242;12.448;2023-02-12T17:09:45;103468.41;;;6.77;100.00
18765;BME280;9511;54.242;12.448;2023-02-12T17:12:12;103469.19;;;6.76;100.00
18765;BME280;9511;54.242;12.448;2023-02-12T17:14:40;103467.09;;;6.72;100.00
18765;BME280;9511;54.242;12.448;2023-02-12T17:17:07;103468.81;;;6.72;100.00
18765;BME280;9511;54.242;12.448;2023-02-12T17:19:34;103475.13;;;6.74;100.00
18765;BME280;9511;54.242;12.448;2023-02-12T17:22:02;103465.13;;;6.70;100.00
18765;BME280;9511;54.242;12.448;2023-02-12T17:24:32;103475.91;;;6.73;100.00
18765;BME280;9511;54.242;12.448;2023-02-12T17:27:01;103475.13;;;6.74;100.00
18765;BME280;9511;54.242;12.448;2023-02-12T17:29:28;103479.34;;;6.72;100.00
18765;BME280;9511;54.242;12.448;2023-02-12T17:31:56;103474.09;;;6.72;100.00
18765;BME280;9511;54.242;12.448;2023-02-12T17:34:24;103474.09;;;6.72;100.00
18765;BME280;9511;54.242;12.448;2023-02-12T17:36:52;103481.97;;;6.72;100.00
18765;BME280;9511;54.242;12.448;2023-02-12T17:39:19;103488.00;;;6.71;100.00
18765;BME280;9511;54.242;12.448;2023-02-12T17:41:47;103491.41;;;6.70;100.00
18765;BME280;9511;54.242;12.448;2023-02-12T17:44:15;103494.44;;;6.74;100.00
18765;BME280;9511;54.242;12.448;2023-02-12T17:46:43;103493.53;;;6.74;100.00
18765;BME280;9511;54.242;12.448;2023-02-12T17:49:10;103502.34;;;6.74;100.00
18765;BME280;9511;54.242;12.448;2023-02-12T17:51:38;103499.06;;;6.77;100.00
18765;BME280;9511;54.242;12.448;2023-02-12T17:54:05;103496.97;;;6.73;100.00
18765;BME280;9511;54.242;12.448;2023-02-12T17:56:32;103498.78;;;6.74;100.00
18765;BME280;9511;54.242;12.448;2023-02-12T17:59:00;103499.59;;;6.73;100.00